Portada
METAR-TAF:

METAR-TAF

Aeropuertos :

Córdoba, Argentina

Aeropuerto Internacional Ingeniero Ambrosio Taravella

latitud: 31-19S, longitud: 064-13W, altitud: 484 m

Observación

El informe se hizo hace 55 minutos, a las 21:00 UTC
Viento 15 kt del este-noreste
Temperatura 21°C
Humedad 28%
Presión 1019 hPa
Visibilidad 10 km o más
sin nubes por debajo de 1500 m y sin presencia de cumulonimbus.

METAR: SACO 232100Z 06015KT CAVOK 21/02 Q1019

Hora: 18:55 (21:55 UTC)

Pronóstico

El informe se hizo hace 4 horas y 55 minutos, a las 17:00 UTC
Pronóstico válido del 23 a las 18 UTC al 24 a las 18 UTC
Viento 5 kt del noroeste
Visibilidad 10 km o más
sin nubes por debajo de 1500 m y sin presencia de cumulonimbus.
Evolucionando progresivamente
del 24 a las 08 UTC al 24 a las 10 UTC
Viento 5 kt del norte-noreste
Visibilidad: 7000 m
neblina

TAF: SACO 231700Z 2318/2418 32005KT CAVOK TX25/2418Z TN03/2410Z BECMG 2408/2410 02005KT 7000 BR NSC

Observaciones y pronósticos meteorológicos de más de 4000 aeropuertos (mensajes METAR y TAF).

Los puntos amarillos y rojos representan las estaciones disponibles.

Ponga el ratón en el punto deseado para ver el nombre de la estación.

Haga clic para ver las observaciones y los pronósticos meteorológicos.

Para cambiar el mapa : haga clic en los botones verdes con una cruz de color negro para hacer un zoom, en el botón verde con un guión para alejar o en las flechas verdes para mapas adyacentes.


METAR-TAF: